.
WxDataArchive / Data Records for 2007-04-23
2007-04-22 April 2007 2007-04-24

Data Records for Monday, 23 April 2007

Time	Temp	Chill	HIndex	Humid	Dewpt	 Wind 	HiWind	WindDir	Rain 	Barom 
-----	----	-----	------	-----	-----	------	------	-------	-----	----- 
00:00	65.8	65.8	65.8	46	44.4	1	5	248	0.00	29.900 
00:05	65.8	65.8	65.8	46	44.4	1	4	225	0.00	29.899 
00:10	65.5	65.5	65.5	47	44.7	1	5	225	0.00	29.897 
00:15	65.3	65.3	65.3	47	44.5	1	5	248	0.00	29.896 
00:20	65.2	65.2	65.2	47	44.5	1	5	248	0.00	29.898 
00:25	65.3	65.3	65.3	47	44.5	2	7	248	0.00	29.899 
00:30	65.5	65.5	65.5	47	44.7	2	5	248	0.00	29.898 
00:35	65.5	65.5	65.5	46	44.2	3	10	248	0.00	29.896 
00:40	65.5	65.5	65.5	46	44.2	2	6	248	0.00	29.896 
00:45	65.5	65.5	65.5	46	44.2	2	7	248	0.00	29.896 
00:50	65.6	65.6	65.6	46	44.3	3	11	248	0.00	29.896 
00:55	65.8	65.8	65.8	46	44.4	3	8	248	0.00	29.894 
01:00	66.0	66.0	66.0	46	44.6	2	7	248	0.00	29.889 
01:05	65.8	65.8	65.8	46	44.4	2	6	248	0.00	29.884 
01:10	65.6	65.6	65.6	46	44.3	2	5	248	0.00	29.883 
01:15	65.6	65.6	65.6	46	44.3	1	5	248	0.00	29.883 
01:20	65.6	65.6	65.6	46	44.3	2	7	248	0.00	29.882 
01:25	65.5	65.5	65.5	46	44.2	1	4	248	0.00	29.883 
01:30	65.5	65.5	65.5	46	44.2	2	6	270	0.00	29.881 
01:35	65.5	65.5	65.5	46	44.2	2	6	248	0.00	29.880 
01:40	65.5	65.5	65.5	46	44.2	2	7	248	0.00	29.880 
01:45	65.6	65.6	65.6	46	44.3	1	6	248	0.00	29.876 
01:50	65.6	65.6	65.6	46	44.3	1	4	248	0.00	29.871 
01:55	66.0	66.0	66.0	45	44.0	2	6	248	0.00	29.868 
02:00	66.3	66.3	66.3	44	43.7	3	9	248	0.00	29.868 
02:05	66.4	66.4	66.4	44	43.8	2	7	248	0.00	29.866 
02:10	66.8	66.8	66.8	43	43.6	3	12	248	0.00	29.865 
02:15	66.8	66.8	66.8	43	43.6	2	6	248	0.00	29.864 
02:20	66.9	66.9	66.9	43	43.7	3	9	248	0.00	29.862 
02:25	66.9	66.9	66.9	42	43.1	3	9	248	0.00	29.860 
02:30	66.8	66.8	66.8	43	43.6	2	6	248	0.00	29.859 
02:35	66.9	66.9	66.9	42	43.1	4	9	248	0.00	29.860 
02:40	67.1	67.1	67.1	42	43.2	4	9	248	0.00	29.858 
02:45	67.1	67.1	67.1	42	43.2	3	7	248	0.00	29.857 
02:50	67.1	67.1	67.1	42	43.2	4	13	248	0.00	29.860 
02:55	67.1	67.1	67.1	42	43.2	3	13	270	0.00	29.857 
03:00	66.9	66.9	66.9	42	43.1	2	7	248	0.00	29.852 
03:05	66.9	66.9	66.9	43	43.7	3	10	248	0.00	29.851 
03:10	66.9	66.9	66.9	43	43.7	3	7	248	0.00	29.849 
03:15	66.9	66.9	66.9	42	43.1	3	10	270	0.00	29.849 
03:20	66.9	66.9	66.9	43	43.7	3	7	248	0.00	29.847 
03:25	66.8	66.8	66.8	43	43.6	2	7	248	0.00	29.847 
03:30	66.8	66.8	66.8	43	43.6	2	11	248	0.00	29.846 
03:35	66.8	66.8	66.8	43	43.6	3	7	248	0.00	29.843 
03:40	66.8	66.8	66.8	43	43.6	2	7	248	0.00	29.841 
03:45	66.6	66.6	66.6	43	43.4	3	10	248	0.00	29.840 
03:50	66.4	66.4	66.4	43	43.2	3	7	248	0.00	29.839 
03:55	66.4	66.4	66.4	43	43.2	3	9	248	0.00	29.836 
04:00	66.3	66.3	66.3	43	43.1	2	6	248	0.00	29.834 
04:05	66.1	66.1	66.1	44	43.5	2	6	248	0.00	29.835 
04:10	66.0	66.0	66.0	45	44.0	2	9	248	0.00	29.835 
04:15	65.8	65.8	65.8	45	43.9	2	9	248	0.00	29.835 
04:20	65.6	65.6	65.6	44	43.1	3	9	248	0.00	29.834 
04:25	65.6	65.6	65.6	45	43.7	3	6	248	0.00	29.834 
04:30	65.5	65.5	65.5	46	44.2	2	10	248	0.00	29.833 
04:35	65.2	65.2	65.2	46	43.9	2	5	248	0.00	29.832 
04:40	65.0	65.0	65.0	47	44.3	1	4	248	0.00	29.830 
04:45	64.7	64.7	64.7	47	44.0	2	7	248	0.00	29.826 
04:50	64.5	64.5	64.5	48	44.4	2	9	270	0.00	29.826 
04:55	64.5	64.5	64.5	47	43.8	2	6	248	0.00	29.823 
05:00	64.7	64.7	64.7	47	44.0	3	12	270	0.00	29.821 
05:05	64.7	64.7	64.7	47	44.0	3	10	248	0.00	29.823 
05:10	64.7	64.7	64.7	48	44.6	2	7	270	0.00	29.823 
05:15	64.7	64.7	64.7	48	44.6	2	7	248	0.00	29.822 
05:20	64.8	64.8	64.8	48	44.6	2	10	248	0.00	29.821 
05:25	64.8	64.8	64.8	48	44.6	3	7	248	0.00	29.824 
05:30	64.8	64.8	64.8	48	44.6	3	7	248	0.00	29.826 
05:35	64.7	64.7	64.7	48	44.6	3	10	248	0.00	29.828 
05:40	64.7	64.7	64.7	49	45.1	3	14	248	0.00	29.827 
05:45	64.5	64.5	64.5	49	44.9	3	9	248	0.00	29.828 
05:50	64.2	64.2	64.2	50	45.2	2	5	270	0.00	29.831 
05:55	64.0	64.0	64.0	50	45.0	2	6	225	0.00	29.830 
06:00	64.0	64.0	64.0	50	45.0	3	8	248	0.00	29.831 
06:05	64.0	64.0	64.0	50	45.0	3	6	225	0.00	29.835 
06:10	63.9	63.9	63.9	51	45.4	2	6	248	0.00	29.836 
06:15	63.7	63.7	63.7	51	45.2	3	14	248	0.00	29.836 
06:20	64.0	64.0	64.0	51	45.5	4	10	248	0.00	29.835 
06:25	64.0	64.0	64.0	51	45.5	3	11	248	0.00	29.837 
06:30	64.0	64.0	64.0	51	45.5	3	11	248	0.00	29.838 
06:35	64.2	64.2	64.2	52	46.2	3	10	248	0.00	29.838 
06:40	64.2	64.2	64.2	52	46.2	3	10	248	0.00	29.838 
06:45	64.2	64.2	64.2	52	46.2	4	12	248	0.00	29.837 
06:50	64.2	64.2	64.2	52	46.2	4	11	248	0.00	29.838 
06:55	64.0	64.0	64.0	53	46.5	2	6	248	0.00	29.838 
07:00	64.2	64.2	64.2	53	46.7	3	12	270	0.00	29.837 
07:05	64.2	64.2	64.2	53	46.7	3	10	248	0.00	29.840 
07:10	64.5	64.5	64.5	53	47.0	4	12	248	0.00	29.839 
07:15	64.5	64.5	64.5	53	47.0	4	12	248	0.00	29.840 
07:20	64.8	64.8	64.8	54	47.8	4	8	248	0.00	29.840 
07:25	65.0	65.0	65.0	54	47.9	4	14	225	0.00	29.836 
07:30	65.3	65.3	65.3	54	48.2	3	7	248	0.00	29.840 
07:35	65.5	65.5	65.5	54	48.4	4	7	248	0.00	29.839 
07:40	66.1	66.1	66.1	53	48.5	5	10	248	0.00	29.836 
07:45	66.4	66.4	66.4	53	48.7	5	14	248	0.00	29.835 
07:50	66.8	66.8	66.8	53	49.1	5	13	248	0.00	29.833 
07:55	67.1	67.1	67.1	53	49.4	6	13	248	0.00	29.832 
08:00	67.3	67.3	67.3	53	49.6	5	12	248	0.00	29.827 
08:05	67.3	67.3	67.3	54	50.1	5	12	248	0.00	29.830 
08:10	67.6	67.6	67.6	53	49.9	5	15	248	0.00	29.829 
08:15	67.9	67.9	67.9	54	50.6	5	13	248	0.00	29.826 
08:20	68.1	68.1	68.1	54	50.8	6	12	248	0.00	29.823 
08:25	68.3	68.3	68.3	54	51.0	6	15	248	0.00	29.824 
08:30	68.8	68.8	68.8	55	52.0	6	15	248	0.00	29.824 
08:35	69.1	69.1	69.1	54	51.7	6	16	270	0.00	29.824 
08:40	69.1	69.1	69.1	55	52.2	6	14	248	0.00	29.822 
08:45	69.3	69.3	69.3	54	51.9	7	16	248	0.00	29.822 
08:50	69.1	69.1	69.1	55	52.2	6	15	248	0.00	29.822 
08:55	69.4	69.4	69.4	56	53.0	7	16	248	0.00	29.822 
09:00	69.9	69.9	69.9	54	52.5	8	17	248	0.00	29.820 
09:05	70.3	70.3	70.3	54	52.9	6	15	270	0.00	29.822 
09:10	70.3	70.3	70.3	55	53.4	7	13	248	0.00	29.818 
09:15	70.6	70.6	70.6	54	53.1	6	19	248	0.00	29.813 
09:20	70.8	70.8	70.8	54	53.3	7	19	248	0.00	29.814 
09:25	71.3	71.3	71.3	53	53.3	7	16	248	0.00	29.808 
09:30	71.3	71.3	71.3	53	53.3	7	16	248	0.00	29.814 
09:35	71.5	71.5	71.5	54	54.0	9	20	248	0.00	29.808 
09:40	71.3	71.3	71.3	54	53.8	7	17	248	0.00	29.811 
09:45	71.3	71.3	71.3	54	53.8	8	17	248	0.00	29.810 
09:50	71.6	71.6	71.6	54	54.1	7	15	248	0.00	29.808 
09:55	71.8	71.8	71.8	54	54.2	8	17	248	0.00	29.808 
10:00	71.5	71.5	71.5	54	54.0	9	19	248	0.00	29.806 
10:05	71.5	71.5	71.5	55	54.5	6	15	248	0.00	29.807 
10:10	71.8	71.8	71.8	55	54.7	5	15	248	0.00	29.807 
10:15	72.0	72.0	72.0	54	54.4	6	15	248	0.00	29.810 
10:20	72.0	72.0	72.0	54	54.4	5	11	248	0.00	29.807 
10:25	72.0	72.0	72.0	55	54.9	8	20	248	0.00	29.806 
10:30	72.0	72.0	72.0	55	54.9	7	20	270	0.00	29.808 
10:35	72.5	72.5	72.5	54	54.9	8	15	270	0.00	29.807 
10:40	72.7	72.7	72.7	53	54.6	8	19	270	0.00	29.808 
10:45	72.8	72.8	72.8	53	54.7	9	17	270	0.00	29.807 
10:50	73.0	73.0	73.0	53	54.8	7	17	270	0.00	29.807 
10:55	73.0	73.0	73.0	53	54.8	5	10	270	0.00	29.808 
11:00	72.5	72.5	72.5	53	54.4	6	15	248	0.00	29.807 
11:05	72.1	72.1	72.1	53	54.0	8	16	248	0.00	29.808 
11:10	72.7	72.7	72.7	55	55.6	7	16	248	0.00	29.808 
11:15	73.2	73.2	73.2	53	55.0	6	13	270	0.00	29.807 
11:20	73.5	73.5	73.5	52	54.8	7	16	270	0.00	29.804 
11:25	73.5	73.5	73.5	52	54.8	8	17	270	0.00	29.805 
11:30	73.9	73.9	73.9	53	55.7	6	13	248	0.00	29.804 
11:35	74.0	74.0	74.0	52	55.2	5	11	248	0.00	29.804 
11:40	74.4	74.4	74.4	52	55.6	6	15	248	0.00	29.803 
11:45	74.6	74.6	74.6	50	54.7	7	15	248	0.00	29.793 
11:50	74.2	74.2	74.2	50	54.3	8	21	270	0.00	29.799 
11:55	73.9	73.9	73.9	50	54.1	8	16	270	0.00	29.798 
12:00	74.2	74.2	74.2	51	54.9	7	15	248	0.00	29.793 
12:05	74.9	74.9	74.9	49	54.4	9	18	270	0.00	29.791 
12:10	74.7	74.7	74.7	48	53.7	8	22	270	0.00	29.789 
12:15	75.1	75.1	77.7	48	54.1	7	14	270	0.00	29.788 
12:20	75.8	75.8	77.9	47	54.1	10	21	270	0.00	29.788 
12:25	76.5	76.5	78.3	47	54.7	7	14	270	0.00	29.788 
12:30	77.0	77.0	78.5	47	55.2	7	16	270	0.00	29.788 
12:35	77.0	77.0	78.5	46	54.6	7	17	248	0.00	29.788 
12:40	77.6	77.6	78.7	43	53.3	8	21	270	0.00	29.788 
12:45	77.0	77.0	78.4	45	54.0	10	22	270	0.00	29.788 
12:50	76.5	76.5	78.2	46	54.2	8	18	270	0.00	29.788 
12:55	76.1	76.1	78.0	46	53.8	8	16	270	0.00	29.788 
13:00	75.6	75.6	77.9	48	54.5	7	13	270	0.00	29.789 
13:05	75.3	75.3	77.7	49	54.8	6	14	270	0.00	29.797 
13:10	76.1	76.1	78.1	47	54.4	7	16	270	0.00	29.790 
13:15	76.3	76.3	78.1	46	54.0	8	15	270	0.00	29.790 
13:20	76.3	76.3	78.1	46	54.0	9	22	270	0.00	29.788 
13:25	77.2	77.2	78.5	43	52.9	8	23	270	0.00	29.789 
13:30	77.2	77.2	78.5	43	52.9	7	16	270	0.00	29.789 
13:35	78.1	78.1	78.8	41	52.5	7	14	270	0.00	29.786 
13:40	78.6	78.6	79.0	39	51.5	8	18	270	0.00	29.788 
13:45	77.7	77.7	78.6	41	52.1	10	21	248	0.00	29.788 
13:50	76.8	76.8	78.1	40	50.6	7	17	270	0.00	29.790 
13:55	76.7	76.7	78.2	42	51.9	6	13	270	0.00	29.793 
14:00	77.7	77.7	78.5	39	50.7	8	15	270	0.00	29.788 
14:05	78.3	78.3	78.9	41	52.6	7	15	270	0.00	29.792 
14:10	78.5	78.5	78.9	38	50.8	5	12	270	0.00	29.794 
14:15	78.3	78.3	78.9	41	52.6	6	12	270	0.00	29.799 
14:20	78.8	78.8	79.2	41	53.1	6	13	270	0.00	29.798 
14:25	79.2	79.2	79.3	38	51.4	5	11	270	0.00	29.798 
14:30	78.5	78.5	78.9	39	51.5	4	12	270	0.00	29.799 
14:35	77.7	77.7	78.6	41	52.1	4	9	270	0.00	29.800 
14:40	77.9	77.9	78.7	41	52.3	7	16	270	0.00	29.802 
14:45	78.1	78.1	78.7	39	51.1	7	19	270	0.00	29.802 
14:50	77.9	77.9	78.7	40	51.6	7	16	270	0.00	29.802 
14:55	78.1	78.1	78.7	39	51.1	7	18	248	0.00	29.802 
15:00	77.2	77.2	78.4	41	51.7	8	19	270	0.00	29.799 
15:05	77.7	77.7	78.6	41	52.1	7	18	270	0.00	29.797 
15:10	77.7	77.7	78.5	38	50.0	6	12	270	0.00	29.802 
15:15	78.1	78.1	78.8	40	51.8	7	21	270	0.00	29.803 
15:20	77.7	77.7	78.5	39	50.7	8	16	270	0.00	29.803 
15:25	77.7	77.7	78.5	39	50.7	8	16	270	0.00	29.804 
15:30	78.1	78.1	78.7	38	50.4	7	19	270	0.00	29.809 
15:35	78.1	78.1	78.7	38	50.4	6	14	270	0.00	29.805 
15:40	78.1	78.1	78.6	37	49.7	7	15	270	0.00	29.809 
15:45	77.9	77.9	78.5	37	49.5	8	16	270	0.00	29.812 
15:50	77.7	77.7	78.5	39	50.7	7	17	270	0.00	29.806 
15:55	77.9	77.9	78.5	37	49.5	6	16	270	0.00	29.811 
16:00	78.1	78.1	78.6	37	49.7	6	13	270	0.00	29.811 
16:05	78.1	78.1	78.7	38	50.4	5	13	270	0.00	29.815 
16:10	78.3	78.3	78.8	38	50.6	5	12	270	0.00	29.816 
16:15	78.3	78.3	78.6	35	48.4	7	16	270	0.00	29.818 
16:20	77.7	77.7	78.2	34	47.1	7	15	270	0.00	29.817 
16:25	77.4	77.4	78.1	35	47.6	9	17	270	0.00	29.819 
16:30	77.4	77.4	78.3	37	49.1	6	19	270	0.00	29.821 
16:35	77.7	77.7	78.2	33	46.3	6	19	270	0.00	29.821 
16:40	77.6	77.6	78.2	34	47.0	5	12	270	0.00	29.823 
16:45	77.4	77.4	78.1	34	46.8	7	13	270	0.00	29.826 
16:50	77.2	77.2	78.2	37	48.9	5	13	270	0.00	29.828 
16:55	77.0	77.0	78.1	37	48.7	5	10	270	0.00	29.829 
17:00	76.8	76.8	78.0	37	48.5	4	9	270	0.00	29.831 
17:05	76.7	76.7	78.0	37	48.4	5	13	270	0.00	29.834 
17:10	76.1	76.1	77.8	39	49.3	6	17	270	0.00	29.836 
17:15	76.0	76.0	77.8	40	49.9	3	10	270	0.00	29.840 
17:20	75.6	75.6	77.8	43	51.5	2	6	270	0.00	29.841 
17:25	75.1	75.1	77.7	46	52.9	2	4	338	0.00	29.844 
17:30	74.6	74.6	74.6	46	52.4	2	6	0	0.00	29.847 
17:35	74.4	74.4	74.4	46	52.3	3	7	270	0.00	29.847 
17:40	74.2	74.2	74.2	46	52.1	3	6	315	0.00	29.850 
17:45	74.0	74.0	74.0	46	51.9	2	5	292	0.00	29.850 
17:50	74.2	74.2	74.2	46	52.1	2	5	270	0.00	29.851 
17:55	74.0	74.0	74.0	45	51.3	2	10	248	0.00	29.853 
18:00	73.9	73.9	73.9	46	51.8	2	5	248	0.00	29.853 
18:05	73.9	73.9	73.9	46	51.8	2	5	270	0.00	29.855 
18:10	73.7	73.7	73.7	46	51.6	2	4	270	0.00	29.854 
18:15	73.7	73.7	73.7	46	51.6	2	4	270	0.00	29.855 
18:20	73.3	73.3	73.3	46	51.3	2	5	270	0.00	29.858 
18:25	72.8	72.8	72.8	46	50.8	2	5	270	0.00	29.861 
18:30	72.8	72.8	72.8	45	50.2	3	6	270	0.00	29.862 
18:35	72.5	72.5	72.5	46	50.5	2	11	315	0.00	29.868 
18:40	71.6	71.6	71.6	50	52.0	3	11	292	0.00	29.873 
18:45	70.6	70.6	70.6	52	52.1	3	7	292	0.00	29.876 
18:50	69.9	69.9	69.9	53	52.0	2	10	315	0.00	29.883 
18:55	69.6	69.6	69.6	54	52.2	2	5	270	0.00	29.884 
19:00	69.4	69.4	69.4	54	52.0	2	5	270	0.00	29.887 
19:05	69.1	69.1	69.1	55	52.2	1	4	292	0.00	29.886 
19:10	68.9	68.9	68.9	55	52.1	1	4	292	0.00	29.888 
19:15	68.6	68.6	68.6	55	51.8	2	5	292	0.00	29.889 
19:20	68.3	68.3	68.3	56	52.0	1	6	292	0.00	29.892 
19:25	67.9	67.9	67.9	56	51.6	1	5	292	0.00	29.893 
19:30	67.6	67.6	67.6	57	51.8	1	3	0	0.00	29.895 
19:35	67.3	67.3	67.3	57	51.5	1	4	292	0.00	29.900 
19:40	66.9	66.9	66.9	58	51.6	1	4	315	0.00	29.903 
19:45	66.6	66.6	66.6	58	51.4	0	2	292	0.00	29.905 
19:50	66.3	66.3	66.3	59	51.5	1	3	270	0.00	29.908 
19:55	66.1	66.1	66.1	59	51.3	1	3	270	0.00	29.911 
20:00	66.0	66.0	66.0	59	51.3	1	3	292	0.00	29.915 
20:05	65.6	65.6	65.6	60	51.3	1	5	270	0.00	29.913 
20:10	65.5	65.5	65.5	60	51.2	1	3	292	0.00	29.915 
20:15	65.0	65.0	65.0	61	51.2	0	3	270	0.00	29.920 
20:20	64.8	64.8	64.8	62	51.5	1	3	270	0.00	29.921 
20:25	64.5	64.5	64.5	62	51.2	0	2	270	0.00	29.922 
20:30	64.2	64.2	64.2	63	51.3	0	2	270	0.00	29.926 
20:35	64.0	64.0	64.0	64	51.6	0	2	292	0.00	29.932 
20:40	64.0	64.0	64.0	64	51.6	1	4	338	0.00	29.934 
20:45	63.7	63.7	63.7	65	51.7	0	2	292	0.00	29.935 
20:50	63.5	63.5	63.5	65	51.5	0	2	292	0.00	29.937 
20:55	63.2	63.2	63.2	66	51.6	0	1	315	0.00	29.940 
21:00	62.9	62.9	62.9	67	51.8	0	3	315	0.00	29.941 
21:05	62.6	62.6	62.6	68	51.9	0	3	338	0.00	29.940 
21:10	62.4	62.4	62.4	68	51.7	0	3	315	0.00	29.944 
21:15	62.3	62.3	62.3	69	52.0	0	2	315	0.00	29.945 
21:20	62.0	62.0	62.0	69	51.7	0	1	315	0.00	29.947 
21:25	61.8	61.8	61.8	70	51.9	0	1	315	0.00	29.949 
21:30	61.6	61.6	61.6	70	51.7	0	2	338	0.00	29.950 
21:35	61.5	61.5	61.5	71	52.0	1	3	0	0.00	29.950 
21:40	61.3	61.3	61.3	71	51.8	0	2	315	0.00	29.953 
21:45	61.2	61.2	61.2	72	52.1	0	2	315	0.00	29.953 
21:50	60.9	60.9	60.9	72	51.8	0	2	315	0.00	29.954 
21:55	60.7	60.7	60.7	73	52.0	0	3	270	0.00	29.953 
22:00	60.5	60.5	60.5	73	51.8	0	2	270	0.00	29.953 
22:05	60.4	60.4	60.4	73	51.7	0	2	270	0.00	29.952 
22:10	60.1	60.1	60.1	74	51.8	0	1	270	0.00	29.953 
22:15	59.9	59.9	59.9	74	51.6	0	0	---	0.00	29.952 
22:20	59.6	59.6	59.6	75	51.7	0	2	270	0.00	29.952 
22:25	59.3	59.3	59.3	76	51.7	0	1	270	0.00	29.950 
22:30	59.2	59.2	59.2	76	51.6	0	0	---	0.00	29.949 
22:35	58.9	58.9	58.9	76	51.3	0	0	---	0.00	29.951 
22:40	58.7	58.7	58.7	77	51.5	0	1	270	0.00	29.950 
22:45	58.4	58.4	58.4	77	51.2	0	0	---	0.00	29.952 
22:50	58.3	58.3	58.3	78	51.5	0	0	---	0.00	29.955 
22:55	58.3	58.3	58.3	78	51.5	0	1	270	0.00	29.955 
23:00	58.1	58.1	58.1	78	51.3	0	0	---	0.00	29.958 
23:05	58.0	58.0	58.0	78	51.2	0	1	270	0.00	29.958 
23:10	58.0	58.0	58.0	78	51.2	0	1	270	0.00	29.957 
23:15	57.8	57.8	57.8	79	51.3	0	0	---	0.00	29.959 
23:20	57.6	57.6	57.6	79	51.1	0	1	270	0.00	29.960 
23:25	57.5	57.5	57.5	79	51.0	0	1	270	0.00	29.959 
23:30	57.5	57.5	57.5	79	51.0	0	1	270	0.00	29.961 
23:35	57.5	57.5	57.5	79	51.0	0	1	270	0.00	29.965 
23:40	57.3	57.3	57.3	80	51.2	0	1	270	0.00	29.970 
23:45	57.5	57.5	57.5	80	51.4	0	1	270	0.00	29.969 
23:50	57.5	57.5	57.5	80	51.4	0	0	---	0.00	29.969 
23:55	57.5	57.5	57.5	80	51.4	0	0	---	0.00	29.969 

CoCoRaHS
IN-AL-39
A2 Web Hosting
Creative Commons License
GoDaddy
Look for:

loaded 2017-10-17 00:28:08 • last modified 2010-11-18 10:43:29
Privacy PolicyDisclaimer
• wx.awcolley.com is powered by PmWiki v.2002016 •
• all content (unless otherwise noted) © 2017 A W Colley